Time;durP1;ratioP1;P1;durP2;ratioP2;P2;SDS_P1;SDS_P2;PMS_P1;PMS_P2;Temp;Humidity;BMP_temperature;BMP_pressure;BME280_temperature;BME280_humidity;BME280_pressure;Samples;Min_cycle;Max_cycle;Signal;HPM_P1;HPM_P2
2023/06/08 02:58:51;;;;;;;6.00;2.60;;;;;;;17.65;95.15;101322.48;102875;1294;600083;-86
2023/06/08 03:01:20;;;;;;;5.10;3.30;;;;;;;17.69;94.90;101325.69;105153;1269;60195;-86
2023/06/08 03:03:56;;;;;;;3.60;2.60;;;;;;;17.76;95.69;101325.16;105097;1269;59261;-89
2023/06/08 03:06:33;;;;;;;11.90;3.90;;;;;;;17.82;96.75;101328.04;105111;1263;70677;-86
2023/06/08 03:09:01;;;;;;;5.60;2.20;;;;;;;17.87;97.66;101326.80;105297;1263;62478;-86
2023/06/08 03:11:30;;;;;;;3.20;2.20;;;;;;;17.91;98.19;101324.66;104523;1264;852571;-86
2023/06/08 03:13:58;;;;;;;6.80;3.00;;;;;;;17.95;98.04;101321.70;105577;1261;59475;-86
2023/06/08 03:16:26;;;;;;;3.90;2.80;;;;;;;18.00;98.13;101323.94;105315;1266;59311;-85
2023/06/08 03:18:56;;;;;;;5.80;3.20;;;;;;;18.05;97.40;101323.34;105857;1261;72121;-85
2023/06/08 03:21:28;;;;;;;7.90;3.10;;;;;;;18.12;97.47;101324.90;105798;1264;63847;-85
2023/06/08 03:23:57;;;;;;;4.90;3.90;;;;;;;18.19;97.44;101321.70;106021;1266;71199;-85
2023/06/08 03:26:43;;;;;;;8.10;3.30;;;;;;;18.28;96.76;101320.80;102607;1291;600313;-87
2023/06/08 03:29:11;;;;;;;7.50;3.50;;;;;;;18.33;96.77;101320.91;104775;1272;60049;-87
2023/06/08 03:31:40;;;;;;;6.00;3.50;;;;;;;18.40;97.33;101326.71;104647;1267;61098;-89
2023/06/08 03:34:16;;;;;;;4.70;3.70;;;;;;;18.47;97.08;101323.53;104597;1275;73499;-87
2023/06/08 03:36:45;;;;;;;5.60;3.10;;;;;;;18.54;97.48;101326.80;105102;1265;63954;-88
2023/06/08 03:39:17;;;;;;;7.80;3.50;;;;;;;18.60;97.93;101326.46;105323;1261;186227;-87
2023/06/08 03:41:45;;;;;;;8.20;3.20;;;;;;;18.66;98.71;101326.89;107923;1258;59227;-86
2023/06/08 03:44:13;;;;;;;6.20;2.90;;;;;;;18.73;99.54;101328.45;109030;1257;58757;-86
2023/06/08 03:46:41;;;;;;;7.10;3.10;;;;;;;18.79;99.27;101330.10;106223;1263;71311;-87
2023/06/08 03:49:09;;;;;;;7.20;3.40;;;;;;;18.85;99.42;101332.09;105571;1257;62769;-87
2023/06/08 03:51:37;;;;;;;6.70;3.60;;;;;;;18.93;100.00;101335.15;105406;1259;73594;-87
2023/06/08 03:54:04;;;;;;;7.60;3.50;;;;;;;19.00;100.00;101334.41;105236;1257;60506;-86
2023/06/08 03:56:32;;;;;;;7.90;3.10;;;;;;;19.06;100.00;101336.68;105584;1263;59731;-88
2023/06/08 03:59:02;;;;;;;8.90;3.60;;;;;;;19.12;99.99;101339.06;105402;1262;72836;-86
2023/06/08 04:01:30;;;;;;;8.20;2.90;;;;;;;19.17;100.00;101340.91;105310;1257;65619;-87
2023/06/08 04:03:59;;;;;;;8.50;2.90;;;;;;;19.23;100.00;101344.00;105733;1254;73727;-86
2023/06/08 04:06:33;;;;;;;10.00;3.70;;;;;;;19.28;100.00;101339.30;105664;1256;59707;-88
2023/06/08 04:09:03;;;;;;;7.70;2.90;;;;;;;19.33;99.97;101338.88;105897;1258;59573;-87
2023/06/08 04:11:30;;;;;;;6.10;3.30;;;;;;;19.38;99.95;101338.58;105786;1258;72429;-86
2023/06/08 04:14:00;;;;;;;5.10;2.70;;;;;;;19.47;98.27;101339.77;105811;1254;63965;-85
2023/06/08 04:16:28;;;;;;;5.80;2.90;;;;;;;19.58;96.98;101343.46;105671;1262;72447;-85
2023/06/08 04:18:58;;;;;;;6.30;3.40;;;;;;;19.72;95.24;101341.14;105833;1254;60243;-85
2023/06/08 04:21:27;;;;;;;7.50;3.30;;;;;;;19.89;95.96;101343.24;105909;1253;60263;-82
2023/06/08 04:24:00;;;;;;;12.50;4.00;;;;;;;20.04;96.74;101342.45;105927;1254;71738;-86
2023/06/08 04:26:32;;;;;;;6.90;3.70;;;;;;;20.21;96.01;101342.36;105785;1253;65761;-85
2023/06/08 04:29:04;;;;;;;10.70;4.40;;;;;;;20.49;95.09;101344.70;105505;1257;72424;-85
2023/06/08 04:31:35;;;;;;;11.10;2.80;;;;;;;20.87;94.25;101347.23;105743;1258;60066;-85
2023/06/08 04:34:03;;;;;;;7.40;2.50;;;;;;;21.35;90.52;101349.19;105603;1259;59552;-86
2023/06/08 04:36:34;;;;;;;10.10;2.60;;;;;;;21.78;84.00;101347.96;105718;1253;71517;-85
2023/06/08 04:39:02;;;;;;;9.20;2.70;;;;;;;22.09;80.46;101351.27;105543;1254;62474;-85
2023/06/08 04:41:31;;;;;;;10.20;2.80;;;;;;;22.24;79.94;101347.54;105481;1257;72782;-88
2023/06/08 04:44:01;;;;;;;12.10;4.00;;;;;;;22.31;81.45;101351.10;105888;1254;59680;-86
2023/06/08 04:46:30;;;;;;;9.70;3.20;;;;;;;22.31;82.60;101345.16;105619;1255;59581;-87
2023/06/08 04:48:58;;;;;;;6.70;2.60;;;;;;;22.29;82.74;101346.65;105830;1254;71994;-86
2023/06/08 04:51:29;;;;;;;7.60;3.30;;;;;;;22.28;84.77;101349.27;105653;1259;63542;-90
2023/06/08 04:54:01;;;;;;;6.80;3.50;;;;;;;22.28;86.77;101344.77;105582;1259;73291;-88
2023/06/08 04:56:29;;;;;;;9.50;3.20;;;;;;;22.31;87.09;101349.13;105590;1256;59748;-87
2023/06/08 04:58:57;;;;;;;3.90;2.20;;;;;;;22.34;85.90;101347.60;105376;1261;61261;-88
2023/06/08 05:01:24;;;;;;;10.40;4.30;;;;;;;22.35;81.30;101350.45;105602;1259;71573;-85
2023/06/08 05:03:52;;;;;;;10.70;3.40;;;;;;;22.35;80.20;101352.62;105644;1255;65285;-89
2023/06/08 05:06:20;;;;;;;13.00;5.00;;;;;;;22.33;81.02;101354.42;105489;1257;71135;-86
2023/06/08 05:08:48;;;;;;;11.80;3.50;;;;;;;22.27;83.22;101354.50;105722;1259;60038;-86
2023/06/08 05:11:15;;;;;;;14.10;4.50;;;;;;;22.20;84.71;101358.40;105647;1256;60093;-86
2023/06/08 05:13:43;;;;;;;7.90;3.30;;;;;;;22.13;85.23;101359.02;105787;1258;72960;-87
2023/06/08 05:16:11;;;;;;;7.20;4.40;;;;;;;22.10;86.06;101358.23;105759;1256;63737;-85
2023/06/08 05:18:38;;;;;;;6.70;3.30;;;;;;;22.09;86.07;101359.71;105701;1259;72726;-89
2023/06/08 05:21:06;;;;;;;7.10;3.10;;;;;;;22.12;86.30;101362.92;105830;1254;59839;-87
2023/06/08 05:23:34;;;;;;;9.20;2.50;;;;;;;22.17;86.53;101364.16;105695;1259;59645;-88
2023/06/08 05:26:02;;;;;;;10.70;2.70;;;;;;;22.30;88.17;101362.58;105849;1259;72854;-87
2023/06/08 05:28:30;;;;;;;6.50;2.90;;;;;;;22.50;87.96;101364.34;105662;1256;63723;-88
2023/06/08 05:30:57;;;;;;;14.00;3.30;;;;;;;22.80;87.47;101358.86;105675;1257;72366;-86
2023/06/08 05:33:25;;;;;;;14.70;3.70;;;;;;;23.18;86.41;101356.50;106893;1256;59482;-87
2023/06/08 05:35:53;;;;;;;21.60;3.60;;;;;;;23.65;85.07;101359.35;109062;1256;59159;-88
2023/06/08 05:38:32;;;;;;;10.40;3.20;;;;;;;24.07;81.61;101360.55;109200;1254;74003;-85
2023/06/08 05:40:59;;;;;;;13.90;2.70;;;;;;;24.37;79.75;101359.16;109289;1254;62361;-86
2023/06/08 05:43:27;;;;;;;9.20;2.90;;;;;;;24.54;76.82;101354.12;109378;1254;71215;-86
2023/06/08 05:45:54;;;;;;;6.80;3.10;;;;;;;24.68;74.90;101361.62;109436;1253;58857;-86
2023/06/08 05:48:22;;;;;;;12.90;3.10;;;;;;;24.75;73.27;101357.39;109314;1256;58916;-86
2023/06/08 05:50:50;;;;;;;7.90;3.10;;;;;;;24.79;74.35;101362.64;109279;1255;71545;-87
2023/06/08 05:53:17;;;;;;;9.40;3.10;;;;;;;24.82;72.35;101361.80;109540;1254;62787;-85
2023/06/08 05:55:45;;;;;;;8.40;2.90;;;;;;;24.87;71.54;101361.29;109328;1259;71479;-85
2023/06/08 05:58:12;;;;;;;14.10;3.10;;;;;;;24.91;70.75;101363.00;108667;1255;58401;-85
2023/06/08 06:00:40;;;;;;;8.80;5.30;;;;;;;24.98;74.63;101362.59;109268;1254;58749;-86
2023/06/08 06:03:08;;;;;;;17.90;10.60;;;;;;;25.05;71.53;101364.64;109459;1254;71962;-87
2023/06/08 06:05:35;;;;;;;12.40;9.40;;;;;;;25.11;67.92;101362.55;109340;1255;62477;-86
2023/06/08 06:08:03;;;;;;;7.10;2.80;;;;;;;25.21;65.41;101361.29;108759;1254;72074;-84
2023/06/08 06:10:33;;;;;;;7.40;3.00;;;;;;;25.37;62.48;101358.98;108983;1253;60504;-86
2023/06/08 06:13:00;;;;;;;10.40;3.20;;;;;;;25.51;62.25;101356.03;108870;1255;59459;-90
2023/06/08 06:15:29;;;;;;;6.60;3.20;;;;;;;25.61;60.99;101354.99;109110;1254;73754;-85
2023/06/08 06:17:56;;;;;;;11.60;3.60;;;;;;;25.68;60.68;101357.48;108625;1256;62312;-86
2023/06/08 06:20:27;;;;;;;17.00;3.40;;;;;;;25.72;58.64;101351.30;106597;1257;72840;-86
2023/06/08 06:22:55;;;;;;;21.50;17.40;;;;;;;25.79;62.04;101351.06;105965;1259;60139;-87
2023/06/08 06:25:24;;;;;;;8.50;4.50;;;;;;;25.85;63.31;101347.65;105976;1259;59796;-88
2023/06/08 06:27:51;;;;;;;6.50;2.50;;;;;;;25.86;59.52;101353.46;105946;1254;73403;-89
2023/06/08 06:30:19;;;;;;;8.70;3.30;;;;;;;25.86;59.05;101350.61;105756;1255;63647;-86
2023/06/08 06:32:46;;;;;;;7.10;2.50;;;;;;;25.85;58.53;101355.20;105694;1255;71304;-90
2023/06/08 06:35:14;;;;;;;6.40;3.20;;;;;;;25.84;59.16;101355.56;105586;1259;60193;-88
2023/06/08 06:37:42;;;;;;;8.70;2.50;;;;;;;25.85;59.80;101353.92;105585;1257;60052;-89
2023/06/08 06:40:10;;;;;;;8.70;2.80;;;;;;;25.90;60.81;101353.09;106562;1254;72927;-86
2023/06/08 06:42:39;;;;;;;6.60;3.40;;;;;;;25.98;61.49;101354.13;109605;1254;63159;-86
2023/06/08 06:45:27;;;;;;;5.70;3.20;;;;;;;26.12;62.21;101348.13;107773;1257;71618;-88
2023/06/08 06:47:55;;;;;;;8.90;3.40;;;;;;;26.31;58.93;101345.85;105947;1256;59707;-89
2023/06/08 06:50:22;;;;;;;7.10;2.50;;;;;;;26.60;58.05;101345.74;105930;1254;59734;-87
2023/06/08 06:52:50;;;;;;;4.90;3.20;;;;;;;27.03;58.35;101348.59;106259;1257;73048;-85
2023/06/08 06:55:18;;;;;;;8.60;2.80;;;;;;;27.47;54.19;101345.30;106712;1257;63645;-84
2023/06/08 06:57:48;;;;;;;6.10;3.00;;;;;;;27.82;50.87;101349.52;106775;1256;73275;-86
2023/06/08 07:00:16;;;;;;;8.50;3.30;;;;;;;28.09;51.71;101348.95;106159;1254;59632;-87
2023/06/08 07:02:44;;;;;;;7.60;2.60;;;;;;;28.38;49.45;101344.21;105647;1259;59661;-88
2023/06/08 07:05:11;;;;;;;10.10;2.90;;;;;;;28.81;45.76;101344.63;105705;1255;71730;-92
2023/06/08 07:07:39;;;;;;;12.20;4.20;;;;;;;29.21;45.60;101346.16;105804;1260;62482;-86
2023/06/08 07:10:07;;;;;;;7.00;3.80;;;;;;;29.78;43.54;101344.39;105535;1256;72982;-87
2023/06/08 07:12:35;;;;;;;8.10;2.80;;;;;;;30.38;40.75;101342.81;105969;1257;60311;-86
2023/06/08 07:15:03;;;;;;;9.90;3.00;;;;;;;30.83;39.40;101338.99;105798;1257;60662;-88
2023/06/08 07:17:30;;;;;;;8.40;3.30;;;;;;;31.26;38.37;101342.30;105861;1255;72848;-86
2023/06/08 07:19:59;;;;;;;5.20;1.90;;;;;;;31.64;36.21;101345.00;105766;1257;63743;-88
2023/06/08 07:22:27;;;;;;;5.60;3.10;;;;;;;32.06;31.32;101344.81;105765;1257;72499;-89
2023/06/08 07:25:16;;;;;;;6.90;1.60;;;;;;;32.59;29.96;101345.01;105710;1259;60393;-89
2023/06/08 07:28:05;;;;;;;3.90;1.70;;;;;;;33.05;29.31;101345.18;105641;1259;60079;-87
2023/06/08 07:30:33;;;;;;;4.90;1.50;;;;;;;33.47;27.44;101345.13;105709;1262;71773;-87
2023/06/08 07:33:01;;;;;;;5.40;2.10;;;;;;;33.82;26.26;101342.36;105910;1255;62492;-87
2023/06/08 07:35:31;;;;;;;4.40;1.70;;;;;;;34.15;25.02;101343.39;105815;1260;72555;-88
2023/06/08 07:37:58;;;;;;;3.70;1.60;;;;;;;34.43;24.46;101340.43;105661;1257;60499;-89
2023/06/08 07:40:26;;;;;;;5.00;1.30;;;;;;;34.66;23.71;101338.11;105715;1255;62057;-86
2023/06/08 07:42:54;;;;;;;3.30;1.40;;;;;;;34.74;23.02;101334.02;105524;1255;72699;-87
2023/06/08 07:45:21;;;;;;;1.90;1.60;;;;;;;34.72;24.13;101336.64;106064;1254;63668;-86
2023/06/08 07:47:49;;;;;;;4.00;1.40;;;;;;;34.73;23.93;101339.02;105705;1256;71815;-88
2023/06/08 07:50:16;;;;;;;3.20;1.50;;;;;;;34.76;23.02;101337.13;105614;1262;61991;-90
2023/06/08 07:52:44;;;;;;;4.00;2.40;;;;;;;34.84;22.74;101337.86;105495;1261;60437;-87
2023/06/08 07:55:13;;;;;;;6.40;2.30;;;;;;;34.93;22.57;101334.41;105682;1255;73943;-89
2023/06/08 07:57:42;;;;;;;4.60;3.50;;;;;;;35.08;22.26;101334.50;105776;1259;62491;-88
2023/06/08 08:00:11;;;;;;;6.00;2.50;;;;;;;35.27;21.86;101339.12;106099;1259;72840;-87
2023/06/08 08:02:39;;;;;;;4.20;2.30;;;;;;;35.34;21.79;101333.88;108816;1255;59166;-85
2023/06/08 08:05:10;;;;;;;2.30;1.60;;;;;;;35.45;21.86;101332.20;108344;1254;61094;-89
2023/06/08 08:07:37;;;;;;;5.10;1.80;;;;;;;35.63;21.13;101330.19;107415;1257;74301;-88
2023/06/08 08:10:05;;;;;;;2.60;1.50;;;;;;;35.79;21.19;101324.62;109289;1254;62637;-87
2023/06/08 08:12:34;;;;;;;5.40;1.80;;;;;;;35.97;21.03;101323.34;109300;1255;71748;-85
2023/06/08 08:15:02;;;;;;;3.70;2.00;;;;;;;36.13;20.71;101322.45;109268;1256;59293;-85
2023/06/08 08:17:30;;;;;;;3.60;1.80;;;;;;;36.19;20.86;101323.64;109348;1254;58781;-84
2023/06/08 08:19:58;;;;;;;5.10;2.10;;;;;;;36.24;20.61;101319.86;109397;1256;73069;-85
2023/06/08 08:22:26;;;;;;;7.70;1.50;;;;;;;36.29;21.06;101316.54;109387;1258;64522;-86
2023/06/08 08:24:54;;;;;;;4.30;1.60;;;;;;;36.40;20.48;101319.38;108663;1253;73136;-86
2023/06/08 08:27:21;;;;;;;3.20;1.60;;;;;;;36.47;20.16;101319.98;108980;1253;58866;-87
2023/06/08 08:29:49;;;;;;;3.10;1.70;;;;;;;36.60;20.66;101328.02;108939;1253;60463;-87
2023/06/08 08:32:18;;;;;;;3.60;1.30;;;;;;;36.68;19.00;101321.38;107599;1253;72659;-85
2023/06/08 08:34:45;;;;;;;5.30;1.50;;;;;;;36.62;19.03;101322.86;108788;1253;59050;-86
2023/06/08 08:37:13;;;;;;;2.40;1.70;;;;;;;36.45;18.37;101323.70;108318;1254;71889;-84
2023/06/08 08:39:40;;;;;;;4.50;1.60;;;;;;;36.23;18.44;101319.99;108290;1253;60384;-89
2023/06/08 08:42:10;;;;;;;5.10;1.80;;;;;;;35.98;19.32;101315.33;107202;1254;60511;-86
2023/06/08 08:44:39;;;;;;;4.90;1.60;;;;;;;35.87;19.56;101319.27;107034;1253;64982;-86
2023/06/08 08:47:10;;;;;;;4.20;1.50;;;;;;;35.79;19.38;101316.80;107206;1259;63172;-87
2023/06/08 08:49:40;;;;;;;3.00;1.80;;;;;;;35.72;19.08;101321.92;106622;1259;72749;-88
2023/06/08 08:52:09;;;;;;;7.10;1.90;;;;;;;35.68;18.91;101316.49;106305;1261;60516;-87
2023/06/08 08:54:38;;;;;;;7.90;1.70;;;;;;;35.73;18.61;101317.79;106283;1260;60430;-90
2023/06/08 08:57:08;;;;;;;2.10;1.50;;;;;;;35.75;18.60;101318.20;106356;1262;72855;-85
2023/06/08 08:59:37;;;;;;;3.80;1.60;;;;;;;35.73;19.06;101312.66;106562;1254;62650;-86
2023/06/08 09:02:05;;;;;;;2.50;1.70;;;;;;;35.83;19.08;101313.98;106668;1258;73450;-88
2023/06/08 09:04:34;;;;;;;2.90;1.30;;;;;;;35.87;18.65;101306.11;106131;1259;60554;-89
2023/06/08 09:07:02;;;;;;;4.20;1.50;;;;;;;35.80;19.52;101302.09;105987;1259;60336;-92
2023/06/08 09:09:29;;;;;;;3.40;1.50;;;;;;;35.72;19.38;101302.77;105913;1259;74538;-91
2023/06/08 09:12:01;;;;;;;3.80;2.30;;;;;;;35.63;19.46;101313.19;105666;1262;64069;-89
2023/06/08 09:14:29;;;;;;;1.60;1.30;;;;;;;35.52;19.21;101308.39;105495;1260;72919;-92
2023/06/08 09:17:01;;;;;;;3.20;1.40;;;;;;;35.40;19.73;101300.02;106320;1259;60431;-89
2023/06/08 09:19:29;;;;;;;;;;;;;;;35.28;20.29;101291.38;106513;1254;62154;-86
2023/06/08 09:21:57;;;;;;;5.80;1.70;;;;;;;35.12;20.21;101281.79;106328;1254;76310;-86
2023/06/08 09:24:25;;;;;;;17.40;2.90;;;;;;;34.87;20.11;101292.07;106160;1259;63872;-88
2023/06/08 09:26:55;;;;;;;3.50;1.70;;;;;;;34.54;20.38;101292.86;105742;1254;72262;-85
2023/06/08 09:29:44;;;;;;;4.20;1.70;;;;;;;34.26;20.09;101300.27;105763;1258;60576;-86
2023/06/08 09:32:16;;;;;;;7.00;1.90;;;;;;;33.92;20.91;101299.73;105778;1257;60706;-88
2023/06/08 09:34:55;;;;;;;6.10;1.60;;;;;;;33.69;21.36;101299.70;105658;1257;73950;-87
2023/06/08 09:37:25;;;;;;;6.50;2.00;;;;;;;33.56;21.41;101297.61;105783;1257;63698;-86
2023/06/08 09:39:53;;;;;;;6.20;2.00;;;;;;;33.56;21.69;101291.60;105930;1257;72685;-87
2023/06/08 09:42:21;;;;;;;3.40;2.90;;;;;;;33.67;22.95;101292.86;109214;1253;60265;-84
2023/06/08 09:44:54;;;;;;;4.30;1.40;;;;;;;33.91;21.61;101294.26;109090;1254;58756;-88
2023/06/08 09:47:22;;;;;;;4.70;3.20;;;;;;;34.12;21.41;101287.01;106090;1254;72830;-85
2023/06/08 09:49:54;;;;;;;3.50;1.60;;;;;;;34.36;21.77;101281.36;105834;1267;63607;-87
2023/06/08 09:52:22;;;;;;;4.80;3.30;;;;;;;34.71;22.02;101279.55;105847;1254;73697;-86
2023/06/08 09:54:50;;;;;;;4.40;2.80;;;;;;;35.04;21.24;101279.20;105732;1254;60650;-87
2023/06/08 09:57:21;;;;;;;3.50;1.80;;;;;;;35.26;20.74;101280.09;105766;1254;60808;-92
2023/06/08 10:00:14;;;;;;;8.00;2.40;;;;;;;35.26;20.51;101277.20;105771;1255;73195;-86
2023/06/08 10:03:27;;;;;;;2.50;1.40;;;;;;;35.08;20.76;101269.40;105946;1265;63778;-91
2023/06/08 10:05:55;;;;;;;3.90;1.20;;;;;;;34.88;20.77;101268.35;105936;1254;74725;-86
2023/06/08 10:08:24;;;;;;;6.30;1.60;;;;;;;34.76;20.76;101271.00;105520;1260;60514;-87
2023/06/08 10:10:52;;;;;;;2.30;0.90;;;;;;;34.58;21.04;101268.65;105673;1261;60824;-90
2023/06/08 10:13:20;;;;;;;3.70;1.40;;;;;;;34.34;21.46;101266.20;105713;1261;74003;-89
2023/06/08 10:15:47;;;;;;;4.50;2.00;;;;;;;34.14;21.91;101268.98;105868;1259;63681;-86
2023/06/08 10:18:15;;;;;;;3.00;1.30;;;;;;;33.96;22.17;101269.95;105667;1261;72543;-88
2023/06/08 10:20:43;;;;;;;2.10;1.00;;;;;;;33.77;22.06;101270.05;105592;1260;60638;-89
2023/06/08 10:23:11;;;;;;;4.20;1.30;;;;;;;33.55;22.64;101272.24;105710;1254;60979;-87
2023/06/08 10:25:40;;;;;;;5.40;3.00;;;;;;;33.36;22.82;101275.05;109453;1258;75652;-87
2023/06/08 10:28:08;;;;;;;3.90;1.50;;;;;;;33.25;23.01;101271.27;109460;1253;62937;-88
2023/06/08 10:30:41;;;;;;;4.80;1.60;;;;;;;33.07;23.11;101265.01;109459;1254;71944;-87
2023/06/08 10:33:10;;;;;;;5.00;3.00;;;;;;;32.89;23.33;101266.73;109396;1259;60173;-86
2023/06/08 10:35:40;;;;;;;6.50;2.30;;;;;;;32.70;23.82;101264.77;109486;1253;58624;-84
2023/06/08 10:38:11;;;;;;;3.40;1.70;;;;;;;32.49;23.40;101257.04;109451;1253;74191;-86
2023/06/08 10:40:46;;;;;;;3.90;1.40;;;;;;;32.29;23.73;101254.91;109474;1260;62636;-87
2023/06/08 10:43:14;;;;;;;4.20;3.30;;;;;;;32.03;23.97;101254.75;109339;1253;71382;-87
2023/06/08 10:46:03;;;;;;;1.60;1.40;;;;;;;31.87;24.26;101251.73;109501;1254;61366;-87
2023/06/08 10:48:36;;;;;;;5.30;2.30;;;;;;;31.81;23.77;101247.77;109587;1254;58979;-87
2023/06/08 10:51:08;;;;;;;2.70;1.30;;;;;;;31.80;24.90;101241.66;109456;1258;72645;-87
2023/06/08 10:53:40;;;;;;;5.80;1.80;;;;;;;31.86;24.89;101243.65;109521;1253;64113;-87
2023/06/08 10:56:08;;;;;;;1.90;1.30;;;;;;;31.78;23.88;101246.52;109319;1253;72738;-91
2023/06/08 10:58:49;;;;;;;7.60;5.40;;;;;;;31.64;24.47;101247.44;109413;1254;60459;-87
2023/06/08 11:01:18;;;;;;;2.40;1.60;;;;;;;31.56;24.78;101245.64;109364;1254;58819;-89
2023/06/08 11:03:47;;;;;;;3.10;2.20;;;;;;;31.46;24.77;101240.39;109318;1254;72674;-87
2023/06/08 11:06:15;;;;;;;6.40;1.30;;;;;;;31.36;24.73;101235.73;109443;1254;63755;-87
2023/06/08 11:08:43;;;;;;;2.90;1.30;;;;;;;31.26;25.23;101236.98;109440;1254;71590;-88
2023/06/08 11:11:11;;;;;;;5.20;2.20;;;;;;;31.15;26.13;101236.14;109431;1254;60161;-87
2023/06/08 11:13:39;;;;;;;2.80;1.70;;;;;;;31.11;25.08;101233.70;109483;1254;58835;-87
2023/06/08 11:16:06;;;;;;;6.50;3.50;;;;;;;31.13;25.18;101233.52;109469;1254;73769;-86
2023/06/08 11:18:35;;;;;;;4.10;1.60;;;;;;;31.26;24.54;101231.72;109562;1254;62492;-85
2023/06/08 11:21:03;;;;;;;4.40;1.70;;;;;;;31.38;24.46;101224.89;109556;1254;72716;-87
2023/06/08 11:23:34;;;;;;;5.20;1.60;;;;;;;31.50;25.64;101219.27;109423;1254;58869;-89
2023/06/08 11:26:02;;;;;;;7.00;2.40;;;;;;;31.69;25.89;101217.73;109466;1254;60970;-85
2023/06/08 11:28:29;;;;;;;7.60;1.50;;;;;;;31.85;25.99;101218.72;109245;1253;74636;-85
2023/06/08 11:30:59;;;;;;;2.90;1.60;;;;;;;31.87;25.70;101223.11;109609;1254;62992;-84
2023/06/08 11:33:27;;;;;;;4.40;2.10;;;;;;;31.78;25.58;101221.36;109458;1253;73533;-86
2023/06/08 11:35:54;;;;;;;3.90;2.00;;;;;;;31.63;25.38;101219.69;109442;1254;58884;-87
2023/06/08 11:38:23;;;;;;;4.10;2.00;;;;;;;31.48;25.84;101220.62;109510;1253;58741;-87
2023/06/08 11:40:56;;;;;;;3.70;1.70;;;;;;;31.31;26.91;101223.41;109457;1254;73026;-89
2023/06/08 11:43:24;;;;;;;4.10;2.30;;;;;;;31.15;27.00;101225.34;109418;1253;62847;-88
2023/06/08 11:45:56;;;;;;;4.60;2.40;;;;;;;30.95;25.15;101220.52;109574;1254;72597;-86
2023/06/08 11:48:24;;;;;;;3.50;1.60;;;;;;;30.75;25.00;101212.74;109408;1253;59390;-88
2023/06/08 11:50:52;;;;;;;2.70;2.00;;;;;;;30.63;25.84;101211.77;109465;1254;58867;-88
2023/06/08 11:53:23;;;;;;;5.60;1.80;;;;;;;30.62;26.11;101211.19;109483;1253;76361;-86
2023/06/08 11:55:54;;;;;;;1.70;1.60;;;;;;;30.67;26.29;101209.02;109485;1254;63723;-85
2023/06/08 11:58:29;;;;;;;4.90;1.80;;;;;;;30.68;26.10;101207.17;109305;1254;72235;-86
2023/06/08 12:01:07;;;;;;;3.60;1.60;;;;;;;30.66;26.75;101205.00;109480;1253;58875;-85
2023/06/08 12:03:46;;;;;;;5.40;1.50;;;;;;;30.63;26.14;101207.02;109532;1254;60059;-89
2023/06/08 12:06:15;;;;;;;3.50;2.10;;;;;;;30.53;25.84;101203.45;109500;1252;73939;-87
2023/06/08 12:08:44;;;;;;;7.70;1.80;;;;;;;30.36;26.25;101203.25;109541;1253;63642;-86
2023/06/08 12:11:13;;;;;;;4.10;2.20;;;;;;;30.11;25.63;101204.46;109365;1255;72740;-85
2023/06/08 12:13:51;;;;;;;5.30;1.30;;;;;;;29.77;25.82;101199.79;109493;1254;58769;-87
2023/06/08 12:16:19;;;;;;;3.40;1.70;;;;;;;29.47;26.45;101203.05;109484;1253;62102;-85
2023/06/08 12:18:47;;;;;;;3.70;1.40;;;;;;;29.24;26.84;101207.33;109401;1260;73059;-87
2023/06/08 12:21:15;;;;;;;2.40;1.70;;;;;;;29.06;26.55;101204.67;109569;1253;63741;-87
2023/06/08 12:23:44;;;;;;;4.80;1.70;;;;;;;28.88;26.89;101201.48;109305;1253;71847;-87
2023/06/08 12:26:12;;;;;;;3.70;1.70;;;;;;;28.80;26.88;101201.84;109231;1254;60183;-86
2023/06/08 12:28:40;;;;;;;4.80;1.90;;;;;;;28.78;26.97;101198.73;109354;1254;61159;-87
2023/06/08 12:31:08;;;;;;;4.10;1.30;;;;;;;28.76;27.26;101192.83;109387;1254;72618;-88
2023/06/08 12:33:36;;;;;;;4.60;1.80;;;;;;;28.71;27.38;101195.21;109467;1254;62758;-88
2023/06/08 12:36:04;;;;;;;2.70;1.60;;;;;;;28.62;26.76;101194.33;109396;1254;71859;-86
2023/06/08 12:38:32;;;;;;;2.40;1.30;;;;;;;28.45;26.77;101192.46;109379;1254;58768;-87
2023/06/08 12:41:00;;;;;;;3.50;1.60;;;;;;;28.27;26.79;101187.75;109409;1254;58953;-87
2023/06/08 12:46:43;;;;;;;2.30;1.60;;;;;;;28.20;27.28;101179.02;105630;1289;613829;-86
2023/06/08 12:49:11;;;;;;;2.50;1.60;;;;;;;28.21;27.29;101177.73;105631;1271;59427;-86
2023/06/08 12:51:38;;;;;;;3.90;1.70;;;;;;;28.20;27.61;101178.52;106450;1267;59752;-87
2023/06/08 12:54:05;;;;;;;6.00;2.00;;;;;;;28.20;27.57;101180.39;105666;1257;70276;-86
2023/06/08 12:56:32;;;;;;;3.00;1.50;;;;;;;28.11;27.13;101173.42;105678;1263;64180;-88
2023/06/08 12:59:00;;;;;;;4.10;1.50;;;;;;;27.97;27.62;101175.84;105145;1260;655781;-85
2023/06/08 13:01:27;;;;;;;6.50;1.90;;;;;;;27.82;27.91;101176.82;105828;1262;60552;-86
2023/06/08 13:03:54;;;;;;;3.80;1.30;;;;;;;27.63;28.24;101171.95;105819;1260;60199;-89
2023/06/08 13:06:22;;;;;;;5.40;1.90;;;;;;;27.45;28.60;101171.83;105911;1257;71716;-90
2023/06/08 13:08:49;;;;;;;4.70;1.60;;;;;;;27.30;28.91;101171.42;106027;1259;63369;-86
2023/06/08 13:11:16;;;;;;;3.10;2.20;;;;;;;27.16;28.99;101167.02;105754;1260;72640;-86
2023/06/08 13:13:44;;;;;;;4.70;2.00;;;;;;;27.01;29.25;101161.48;106008;1256;59737;-89
2023/06/08 13:16:12;;;;;;;7.40;1.80;;;;;;;26.90;29.28;101162.04;105982;1257;61089;-87
2023/06/08 13:18:41;;;;;;;5.20;1.70;;;;;;;26.81;29.91;101159.89;105808;1259;73648;-88
2023/06/08 13:21:08;;;;;;;9.30;2.10;;;;;;;26.74;30.29;101155.55;105823;1257;63950;-90
2023/06/08 13:23:39;;;;;;;3.20;1.30;;;;;;;26.68;29.84;101156.67;105917;1257;70461;-88
2023/06/08 13:26:06;;;;;;;3.90;1.50;;;;;;;26.62;29.61;101152.48;106067;1258;59678;-89
2023/06/08 13:28:35;;;;;;;4.00;1.40;;;;;;;26.57;29.39;101150.13;106181;1257;60351;-86
2023/06/08 13:31:02;;;;;;;4.00;1.40;;;;;;;26.55;29.77;101152.28;105905;1260;72963;-87
2023/06/08 13:33:30;;;;;;;4.20;1.50;;;;;;;26.55;29.96;101151.97;105843;1260;63744;-88
2023/06/08 13:35:58;;;;;;;3.10;1.80;;;;;;;26.54;30.19;101149.15;105988;1257;72724;-89
2023/06/08 13:38:28;;;;;;;3.80;1.80;;;;;;;26.54;30.05;101145.09;105828;1260;61331;-89
2023/06/08 13:40:56;;;;;;;5.80;2.00;;;;;;;26.54;29.99;101144.55;105943;1254;59692;-89
2023/06/08 13:43:23;;;;;;;3.20;2.60;;;;;;;26.53;29.82;101138.88;106127;1255;73042;-86
2023/06/08 13:45:57;;;;;;;4.00;2.80;;;;;;;26.53;30.09;101139.38;106480;1258;64295;-86
2023/06/08 13:48:27;;;;;;;8.00;1.60;;;;;;;26.56;30.41;101135.70;106263;1260;73117;-85
2023/06/08 13:50:54;;;;;;;3.90;2.10;;;;;;;26.60;30.56;101136.84;106402;1251;62122;-86
2023/06/08 13:53:24;;;;;;;6.70;1.90;;;;;;;26.64;30.83;101135.72;106725;1251;60230;-86
2023/06/08 13:55:52;;;;;;;6.20;3.20;;;;;;;26.67;30.64;101132.23;106808;1251;73178;-90
2023/06/08 13:58:22;;;;;;;4.70;1.90;;;;;;;26.67;30.68;101131.41;106357;1255;63720;-86
2023/06/08 14:00:50;;;;;;;3.60;1.40;;;;;;;26.67;30.26;101129.30;106691;1256;74197;-86
2023/06/08 14:03:17;;;;;;;3.20;1.60;;;;;;;26.66;29.40;101125.11;106730;1251;60116;-88
2023/06/08 14:05:46;;;;;;;5.70;1.50;;;;;;;26.65;28.85;101121.10;107092;1257;60357;-90
2023/06/08 14:08:13;;;;;;;5.10;2.50;;;;;;;26.65;28.82;101121.68;106618;1256;74016;-90
2023/06/08 14:10:40;;;;;;;3.60;2.30;;;;;;;26.60;29.10;101117.65;106232;1254;64018;-89
2023/06/08 14:13:08;;;;;;;5.90;2.00;;;;;;;26.55;29.23;101117.79;106232;1251;72528;-89
2023/06/08 14:15:35;;;;;;;5.10;2.10;;;;;;;26.52;29.24;101114.56;106391;1257;61751;-87
2023/06/08 14:18:03;;;;;;;5.20;2.50;;;;;;;26.50;29.69;101112.37;107021;1256;59615;-87
2023/06/08 14:20:34;;;;;;;2.80;2.20;;;;;;;26.47;29.63;101111.92;106817;1257;72982;-89
2023/06/08 14:23:02;;;;;;;3.80;2.00;;;;;;;26.43;29.61;101109.52;106918;1257;62607;-88
2023/06/08 14:25:29;;;;;;;5.70;1.50;;;;;;;26.38;29.62;101106.20;106590;1255;72736;-89
2023/06/08 14:27:58;;;;;;;2.60;1.90;;;;;;;26.33;29.90;101105.05;106374;1256;60237;-86